Robijn — PBEJ — position and weather

sailwx.info

Track history (hours):
 
Tides and Currents Weather Stations Pressure Air Temp Water Temp Dewpoint Dewpoint Depression Visibility Wind Speed Wind Dir Waves Ship Positions

Robijn

Last reported at 2015-Mar-24 19:33 UTC. Time now 2015-Mar-27 22:09 UTC.
Position N 55°43' E 015°44'.

Length 90 m; draft 5.1 m.

Type: Cargo ship. MMSI: 245909000.

Date/timePositionNaut miles runAvg speedWind from/ knotsBaromVisibWave heightAir tempDewpointWater temp
2015-Mar-24 19:33N 55°43' E 015°44'1111.4
2015-Mar-24 18:33N 55°38' E 015°27'1111.3
2015-Mar-24 17:33N 55°32' E 015°09'1111.3
2015-Mar-24 16:33N 55°27' E 014°52'1111.2
2015-Mar-24 15:33N 55°20' E 014°36'1111.4
2015-Mar-24 14:33N 55°12' E 014°21'1111.2
2015-Mar-24 13:33N 55°11' E 014°02'1511.3
2015-Mar-24 12:11N 55°12' E 013°35'711.5
2015-Mar-24 11:33N 55°13' E 013°22'1111.1
2015-Mar-24 10:33N 55°14' E 013°03'1111.0
2015-Mar-24 09:33N 55°17' E 012°44'9 9.4
2015-Mar-24 08:33N 55°26' E 012°39'1111.4
2015-Mar-24 07:33N 55°37' E 012°42'1211.6
2015-Mar-24 06:33N 55°49' E 012°40'1111.2
2015-Mar-24 05:33N 55°60' E 012°38'1010.2
2015-Mar-24 04:33N 56°08' E 012°27'1111.0
2015-Mar-24 03:31N 56°14' E 012°09'74 3.2
2015-Mar-23 04:30N 56°43' E 010°06'7 5.1
2015-Mar-23 03:07N 56°42' E 010°19'5 3.0
2015-Mar-23 01:33N 56°45' E 010°27'0 0.0
2015-Mar-22 23:29N 56°45' E 010°27'30 0.8
2015-Mar-21 12:11N 57°13' E 010°43'711.0
2015-Mar-21 11:32N 57°20' E 010°43'1111.4
2015-Mar-21 10:33N 57°32' E 010°43'1110.7
2015-Mar-21 09:33N 57°42' E 010°45'7 6.6
2015-Mar-21 08:33N 57°46' E 010°35'38411.2
2015-Mar-19 22:14N 54°01' E 001°21'2312.4
2015-Mar-19 20:21N 53°48' E 000°49'1012.4
2015-Mar-19 19:33N 53°43' E 000°34'1212.3
2015-Mar-19 18:33N 53°35' E 000°18'1111.0
2015-Mar-19 17:33N 53°35' W 000°00'1111.0
2015-Mar-19 16:33N 53°43' W 000°14'5 4.5
2015-Mar-19 15:33N 53°43' W 000°22'0 0.0
2015-Mar-19 14:33N 53°43' W 000°22'0 0.0
2015-Mar-19 13:33N 53°43' W 000°22'0 0.0
2015-Mar-19 12:33N 53°43' W 000°22'0 0.0
2015-Mar-19 11:33N 53°43' W 000°22'0 0.0
2015-Mar-19 10:33N 53°43' W 000°22'0 0.0
2015-Mar-19 09:33N 53°43' W 000°22'0 0.0
2015-Mar-19 08:33N 53°43' W 000°22'0 0.0
2015-Mar-19 07:34N 53°43' W 000°22'0 0.0
2015-Mar-19 06:33N 53°43' W 000°22'0 0.0
2015-Mar-19 05:33N 53°43' W 000°22'0 0.0
2015-Mar-19 04:33N 53°43' W 000°22'0 0.0
2015-Mar-19 03:33N 53°43' W 000°22'0 0.0
2015-Mar-19 02:33N 53°43' W 000°22'0 0.0
2015-Mar-19 01:33N 53°43' W 000°22'0 0.0
2015-Mar-19 00:33N 53°43' W 000°22'0 0.0
2015-Mar-18 23:33N 53°43' W 000°22'0 0.0
2015-Mar-18 22:33N 53°43' W 000°22'0 0.0
2015-Mar-18 21:33N 53°43' W 000°22'0 0.0
2015-Mar-18 20:33N 53°43' W 000°22'0 0.0
2015-Mar-18 19:33N 53°43' W 000°22'0 0.0
2015-Mar-18 18:33N 53°43' W 000°22'0 0.0
2015-Mar-18 17:33N 53°43' W 000°22'0 0.2
2015-Mar-18 16:33N 53°43' W 000°22'0 0.1
2015-Mar-18 15:33N 53°43' W 000°22'7 6.5
2015-Mar-18 14:33N 53°40' W 000°12'1211.8
2015-Mar-18 13:34N 53°34' E 000°05'8 7.8
2015-Mar-18 12:33N 53°33' E 000°18'8 8.3
2015-Mar-18 11:32N 53°32' E 000°33'33 5.5
2015-Mar-18 05:32N 53°13' E 001°17'7 6.8
2015-Mar-18 04:34N 53°09' E 001°26'7 7.2
2015-Mar-18 03:34N 53°04' E 001°35'8 8.1
2015-Mar-18 02:34N 52°60' E 001°46'9 9.4
2015-Mar-18 01:33N 52°54' E 001°59'1210.3
2015-Mar-18 00:25N 52°46' E 002°13'10 9.7
2015-Mar-17 23:25N 52°40' E 002°26'10 9.2
2015-Mar-17 22:20N 52°34' E 002°38'16 8.6
2015-Mar-17 20:29N 52°24' E 002°58'8 8.4
2015-Mar-17 19:34N 52°19' E 003°09'17 8.5
2015-Mar-17 17:31N 52°09' E 003°32'8 8.8
2015-Mar-17 16:33N 52°05' E 003°44'10 9.6
2015-Mar-17 15:34N 52°01' E 003°58'7 6.5
2015-Mar-17 14:33N 51°58' E 004°07'0 0.0
2015-Mar-17 13:33N 51°58' E 004°07'0 0.0
2015-Mar-17 12:33N 51°58' E 004°07'0 0.0
2015-Mar-17 11:33N 51°58' E 004°07'0 0.0
2015-Mar-17 10:33N 51°58' E 004°07'0 0.0
2015-Mar-17 09:33N 51°58' E 004°07'0 0.0
2015-Mar-17 08:30N 51°58' E 004°07'0 0.0
2015-Mar-17 07:33N 51°58' E 004°07'0 0.0
2015-Mar-17 06:33N 51°58' E 004°07'0 0.0
2015-Mar-17 05:33N 51°58' E 004°07'0 0.0
2015-Mar-17 04:33N 51°58' E 004°07'0 0.0
2015-Mar-17 03:33N 51°58' E 004°07'1 0.6
2015-Mar-17 02:33N 51°57' E 004°08'0 0.0
2015-Mar-17 01:33N 51°57' E 004°08'0 0.0
2015-Mar-17 00:33N 51°57' E 004°08'0 0.0
2015-Mar-16 23:33N 51°57' E 004°08'0 0.0
2015-Mar-16 22:34N 51°57' E 004°08'0 0.4
2015-Mar-16 21:32N 51°58' E 004°08'0 0.0
2015-Mar-16 20:32N 51°58' E 004°08'0 0.0
2015-Mar-16 19:29N 51°58' E 004°08'0 0.0
2015-Mar-16 18:32N 51°58' E 004°08'0 0.0
2015-Mar-16 17:32N 51°58' E 004°08'2 2.0
2015-Mar-16 16:34N 51°59' E 004°05'1111.0
2015-Mar-16 15:34N 51°54' E 004°21'4 3.6
2015-Mar-16 14:31N 51°54' E 004°27'0 0.0
2015-Mar-16 13:31N 51°54' E 004°27'0 0.0
2015-Mar-16 12:31N 51°54' E 004°27'0 0.0
2015-Mar-16 11:31N 51°54' E 004°27'0 0.0
2015-Mar-16 10:31N 51°54' E 004°27'0 0.0
2015-Mar-16 09:31N 51°54' E 004°27'0 0.0
2015-Mar-16 08:31N 51°54' E 004°27'0 0.0
2015-Mar-16 07:31N 51°54' E 004°27'0 0.0
2015-Mar-16 06:31N 51°54' E 004°27'0 0.0
2015-Mar-16 05:31N 51°54' E 004°27'0 0.0
2015-Mar-16 04:31N 51°54' E 004°27'0 0.0
2015-Mar-16 03:31N 51°54' E 004°27'0 0.0
2015-Mar-16 02:31N 51°54' E 004°27'0 0.0
2015-Mar-16 01:31N 51°54' E 004°27'0 0.0
2015-Mar-16 00:31N 51°54' E 004°27'0 0.0
2015-Mar-15 23:31N 51°54' E 004°27'0 0.0
2015-Mar-15 22:31N 51°54' E 004°27'0 0.0
2015-Mar-15 21:31N 51°54' E 004°27'0 0.0
2015-Mar-15 20:31N 51°54' E 004°27'0 0.0
2015-Mar-15 19:31N 51°54' E 004°27'0 0.0
2015-Mar-15 18:31N 51°54' E 004°27'0 0.0
2015-Mar-15 17:31N 51°54' E 004°27'0 0.0
2015-Mar-15 16:31N 51°54' E 004°27'0 0.0
2015-Mar-15 15:31N 51°54' E 004°27'0 0.0
2015-Mar-15 14:31N 51°54' E 004°27'0 0.0
2015-Mar-15 13:31N 51°54' E 004°27'0 0.0
2015-Mar-15 12:31N 51°54' E 004°27'0 0.0
2015-Mar-15 11:31N 51°54' E 004°27'0 0.0
2015-Mar-15 10:31N 51°54' E 004°27'0 0.0
2015-Mar-15 09:28N 51°54' E 004°27'0 0.0
2015-Mar-15 08:31N 51°54' E 004°27'0 0.0
2015-Mar-15 07:31N 51°54' E 004°27'0 0.0
2015-Mar-15 06:31N 51°54' E 004°27'0 0.0
2015-Mar-15 05:31N 51°54' E 004°27'0 0.0
2015-Mar-15 04:31N 51°54' E 004°27'0 0.0
2015-Mar-15 03:31N 51°54' E 004°27'0 0.0
2015-Mar-15 02:31N 51°54' E 004°27'0 0.0
2015-Mar-15 01:31N 51°54' E 004°27'0 0.0
2015-Mar-15 00:31N 51°54' E 004°27'0 0.0
2015-Mar-14 23:31N 51°54' E 004°27'0 0.0
2015-Mar-14 22:31N 51°54' E 004°27'0 0.0
2015-Mar-14 21:31N 51°54' E 004°27'0 0.0
2015-Mar-14 20:31N 51°54' E 004°27'  
Track history (hours):
 
Tides and Currents Weather Stations Pressure Air Temp Water Temp Dewpoint Dewpoint Depression Visibility Wind Speed Wind Dir Waves Ship Positions

Robijn

Last reported at 2015-Mar-24 19:33 UTC. Time now 2015-Mar-27 22:09 UTC.
Position N 55°43' E 015°44'.

Length 90 m; draft 5.1 m.

Type: Cargo ship. MMSI: 245909000.

Date/timePositionNaut miles runAvg speedWind from/ knotsBaromVisibWave heightAir tempDewpointWater temp
2015-Mar-24 19:33N 55°43' E 015°44'1111.4
2015-Mar-24 18:33N 55°38' E 015°27'1111.3
2015-Mar-24 17:33N 55°32' E 015°09'1111.3
2015-Mar-24 16:33N 55°27' E 014°52'1111.2
2015-Mar-24 15:33N 55°20' E 014°36'1111.4
2015-Mar-24 14:33N 55°12' E 014°21'1111.2
2015-Mar-24 13:33N 55°11' E 014°02'1511.3
2015-Mar-24 12:11N 55°12' E 013°35'711.5
2015-Mar-24 11:33N 55°13' E 013°22'1111.1
2015-Mar-24 10:33N 55°14' E 013°03'1111.0
2015-Mar-24 09:33N 55°17' E 012°44'9 9.4
2015-Mar-24 08:33N 55°26' E 012°39'1111.4
2015-Mar-24 07:33N 55°37' E 012°42'1211.6
2015-Mar-24 06:33N 55°49' E 012°40'1111.2
2015-Mar-24 05:33N 55°60' E 012°38'1010.2
2015-Mar-24 04:33N 56°08' E 012°27'1111.0
2015-Mar-24 03:31N 56°14' E 012°09'74 3.2
2015-Mar-23 04:30N 56°43' E 010°06'7 5.1
2015-Mar-23 03:07N 56°42' E 010°19'5 3.0
2015-Mar-23 01:33N 56°45' E 010°27'0 0.0
2015-Mar-22 23:29N 56°45' E 010°27'30 0.8
2015-Mar-21 12:11N 57°13' E 010°43'711.0
2015-Mar-21 11:32N 57°20' E 010°43'1111.4
2015-Mar-21 10:33N 57°32' E 010°43'1110.7
2015-Mar-21 09:33N 57°42' E 010°45'7 6.6
2015-Mar-21 08:33N 57°46' E 010°35'38411.2
2015-Mar-19 22:14N 54°01' E 001°21'2312.4
2015-Mar-19 20:21N 53°48' E 000°49'1012.4
2015-Mar-19 19:33N 53°43' E 000°34'1212.3
2015-Mar-19 18:33N 53°35' E 000°18'1111.0
2015-Mar-19 17:33N 53°35' W 000°00'1111.0
2015-Mar-19 16:33N 53°43' W 000°14'5 4.5
2015-Mar-19 15:33N 53°43' W 000°22'0 0.0
2015-Mar-19 14:33N 53°43' W 000°22'0 0.0
2015-Mar-19 13:33N 53°43' W 000°22'0 0.0
2015-Mar-19 12:33N 53°43' W 000°22'0 0.0
2015-Mar-19 11:33N 53°43' W 000°22'0 0.0
2015-Mar-19 10:33N 53°43' W 000°22'0 0.0
2015-Mar-19 09:33N 53°43' W 000°22'0 0.0
2015-Mar-19 08:33N 53°43' W 000°22'0 0.0
2015-Mar-19 07:34N 53°43' W 000°22'0 0.0
2015-Mar-19 06:33N 53°43' W 000°22'0 0.0
2015-Mar-19 05:33N 53°43' W 000°22'0 0.0
2015-Mar-19 04:33N 53°43' W 000°22'0 0.0
2015-Mar-19 03:33N 53°43' W 000°22'0 0.0
2015-Mar-19 02:33N 53°43' W 000°22'0 0.0
2015-Mar-19 01:33N 53°43' W 000°22'0 0.0
2015-Mar-19 00:33N 53°43' W 000°22'0 0.0
2015-Mar-18 23:33N 53°43' W 000°22'0 0.0
2015-Mar-18 22:33N 53°43' W 000°22'0 0.0
2015-Mar-18 21:33N 53°43' W 000°22'0 0.0
2015-Mar-18 20:33N 53°43' W 000°22'0 0.0
2015-Mar-18 19:33N 53°43' W 000°22'0 0.0
2015-Mar-18 18:33N 53°43' W 000°22'0 0.0
2015-Mar-18 17:33N 53°43' W 000°22'0 0.2
2015-Mar-18 16:33N 53°43' W 000°22'0 0.1
2015-Mar-18 15:33N 53°43' W 000°22'7 6.5
2015-Mar-18 14:33N 53°40' W 000°12'1211.8
2015-Mar-18 13:34N 53°34' E 000°05'8 7.8
2015-Mar-18 12:33N 53°33' E 000°18'8 8.3
2015-Mar-18 11:32N 53°32' E 000°33'33 5.5
2015-Mar-18 05:32N 53°13' E 001°17'7 6.8
2015-Mar-18 04:34N 53°09' E 001°26'7 7.2
2015-Mar-18 03:34N 53°04' E 001°35'8 8.1
2015-Mar-18 02:34N 52°60' E 001°46'9 9.4
2015-Mar-18 01:33N 52°54' E 001°59'1210.3
2015-Mar-18 00:25N 52°46' E 002°13'10 9.7
2015-Mar-17 23:25N 52°40' E 002°26'10 9.2
2015-Mar-17 22:20N 52°34' E 002°38'16 8.6
2015-Mar-17 20:29N 52°24' E 002°58'8 8.4
2015-Mar-17 19:34N 52°19' E 003°09'17 8.5
2015-Mar-17 17:31N 52°09' E 003°32'8 8.8
2015-Mar-17 16:33N 52°05' E 003°44'10 9.6
2015-Mar-17 15:34N 52°01' E 003°58'7 6.5
2015-Mar-17 14:33N 51°58' E 004°07'0 0.0
2015-Mar-17 13:33N 51°58' E 004°07'0 0.0
2015-Mar-17 12:33N 51°58' E 004°07'0 0.0
2015-Mar-17 11:33N 51°58' E 004°07'0 0.0
2015-Mar-17 10:33N 51°58' E 004°07'0 0.0
2015-Mar-17 09:33N 51°58' E 004°07'0 0.0
2015-Mar-17 08:30N 51°58' E 004°07'0 0.0
2015-Mar-17 07:33N 51°58' E 004°07'0 0.0
2015-Mar-17 06:33N 51°58' E 004°07'0 0.0
2015-Mar-17 05:33N 51°58' E 004°07'0 0.0
2015-Mar-17 04:33N 51°58' E 004°07'0 0.0
2015-Mar-17 03:33N 51°58' E 004°07'1 0.6
2015-Mar-17 02:33N 51°57' E 004°08'0 0.0
2015-Mar-17 01:33N 51°57' E 004°08'0 0.0
2015-Mar-17 00:33N 51°57' E 004°08'0 0.0
2015-Mar-16 23:33N 51°57' E 004°08'0 0.0
2015-Mar-16 22:34N 51°57' E 004°08'0 0.4
2015-Mar-16 21:32N 51°58' E 004°08'0 0.0
2015-Mar-16 20:32N 51°58' E 004°08'0 0.0
2015-Mar-16 19:29N 51°58' E 004°08'0 0.0
2015-Mar-16 18:32N 51°58' E 004°08'0 0.0
2015-Mar-16 17:32N 51°58' E 004°08'2 2.0
2015-Mar-16 16:34N 51°59' E 004°05'1111.0
2015-Mar-16 15:34N 51°54' E 004°21'4 3.6
2015-Mar-16 14:31N 51°54' E 004°27'0 0.0
2015-Mar-16 13:31N 51°54' E 004°27'0 0.0
2015-Mar-16 12:31N 51°54' E 004°27'0 0.0
2015-Mar-16 11:31N 51°54' E 004°27'0 0.0
2015-Mar-16 10:31N 51°54' E 004°27'0 0.0
2015-Mar-16 09:31N 51°54' E 004°27'0 0.0
2015-Mar-16 08:31N 51°54' E 004°27'0 0.0
2015-Mar-16 07:31N 51°54' E 004°27'0 0.0
2015-Mar-16 06:31N 51°54' E 004°27'0 0.0
2015-Mar-16 05:31N 51°54' E 004°27'0 0.0
2015-Mar-16 04:31N 51°54' E 004°27'0 0.0
2015-Mar-16 03:31N 51°54' E 004°27'0 0.0
2015-Mar-16 02:31N 51°54' E 004°27'0 0.0
2015-Mar-16 01:31N 51°54' E 004°27'0 0.0
2015-Mar-16 00:31N 51°54' E 004°27'0 0.0
2015-Mar-15 23:31N 51°54' E 004°27'0 0.0
2015-Mar-15 22:31N 51°54' E 004°27'0 0.0
2015-Mar-15 21:31N 51°54' E 004°27'0 0.0
2015-Mar-15 20:31N 51°54' E 004°27'0 0.0
2015-Mar-15 19:31N 51°54' E 004°27'0 0.0
2015-Mar-15 18:31N 51°54' E 004°27'0 0.0
2015-Mar-15 17:31N 51°54' E 004°27'0 0.0
2015-Mar-15 16:31N 51°54' E 004°27'0 0.0
2015-Mar-15 15:31N 51°54' E 004°27'0 0.0
2015-Mar-15 14:31N 51°54' E 004°27'0 0.0
2015-Mar-15 13:31N 51°54' E 004°27'0 0.0
2015-Mar-15 12:31N 51°54' E 004°27'0 0.0
2015-Mar-15 11:31N 51°54' E 004°27'0 0.0
2015-Mar-15 10:31N 51°54' E 004°27'0 0.0
2015-Mar-15 09:28N 51°54' E 004°27'0 0.0
2015-Mar-15 08:31N 51°54' E 004°27'0 0.0
2015-Mar-15 07:31N 51°54' E 004°27'0 0.0
2015-Mar-15 06:31N 51°54' E 004°27'0 0.0
2015-Mar-15 05:31N 51°54' E 004°27'0 0.0
2015-Mar-15 04:31N 51°54' E 004°27'0 0.0
2015-Mar-15 03:31N 51°54' E 004°27'0 0.0
2015-Mar-15 02:31N 51°54' E 004°27'0 0.0
2015-Mar-15 01:31N 51°54' E 004°27'0 0.0
2015-Mar-15 00:31N 51°54' E 004°27'0 0.0
2015-Mar-14 23:31N 51°54' E 004°27'0 0.0
2015-Mar-14 22:31N 51°54' E 004°27'0 0.0
2015-Mar-14 21:31N 51°54' E 004°27'0 0.0
2015-Mar-14 20:31N 51°54' E 004°27'  

Dump ship's entire track history